Time;durP1;ratioP1;P1;durP2;ratioP2;P2;SDS_P1;SDS_P2;PMS_P1;PMS_P2;Temp;Humidity;BMP_temperature;BMP_pressure;BME280_temperature;BME280_humidity;BME280_pressure;Samples;Min_cycle;Max_cycle;Signal;HPM_P1;HPM_P2
2022/01/04 00:00:07;;;;;;;12.63;6.03;;;8.10;99.90;;;;;;4953967;28;20247;-63
2022/01/04 00:02:41;;;;;;;13.67;6.37;;;8.10;99.90;;;;;;4953485;28;20234;-63
2022/01/04 00:05:11;;;;;;;16.87;6.40;;;8.10;99.90;;;;;;4956103;28;20249;-62
2022/01/04 00:07:40;;;;;;;10.97;6.63;;;8.10;99.90;;;;;;4942136;28;20242;-62
2022/01/04 00:10:09;;;;;;;13.47;5.93;;;8.00;99.90;;;;;;4953717;28;20680;-62
2022/01/04 00:15:23;;;;;;;11.23;6.33;;;8.00;99.90;;;;;;4953768;28;20250;-62
2022/01/04 00:17:53;;;;;;;14.37;6.97;;;8.00;99.90;;;;;;4953681;28;20235;-62
2022/01/04 00:20:21;;;;;;;15.47;6.87;;;8.00;99.90;;;;;;4953540;28;20247;-62
2022/01/04 00:22:49;;;;;;;15.70;6.83;;;8.00;99.90;;;;;;4952611;28;20238;-62
2022/01/04 00:25:17;;;;;;;17.27;7.47;;;8.00;99.90;;;;;;4945436;28;20751;-62
2022/01/04 00:27:46;;;;;;;15.77;7.53;;;8.00;99.90;;;;;;4953345;28;20619;-62
2022/01/04 00:30:14;;;;;;;15.77;6.90;;;8.00;99.90;;;;;;4953278;28;20326;-62
2022/01/04 00:32:43;;;;;;;16.27;7.63;;;8.00;99.90;;;;;;4953207;28;20269;-62
2022/01/04 00:35:29;;;;;;;13.70;7.20;;;8.10;99.90;;;;;;1841776;28;10003648;-64
2022/01/04 00:37:57;;;;;;;13.87;7.57;;;8.00;99.90;;;;;;3943080;28;10001263;-62
2022/01/04 00:40:26;;;;;;;15.03;7.63;;;8.00;99.90;;;;;;4972231;28;20470;-62
2022/01/04 00:42:57;;;;;;;16.57;7.83;;;8.00;99.90;;;;;;4971605;28;20234;-62
2022/01/04 00:45:26;;;;;;;15.73;7.77;;;8.10;99.90;;;;;;4972462;28;20645;-62
2022/01/04 00:50:41;;;;;;;12.67;7.30;;;8.00;99.90;;;;;;4972158;28;20848;-62
2022/01/04 00:53:10;;;;;;;19.07;8.03;;;8.00;99.90;;;;;;4966767;28;20246;-63
2022/01/04 00:55:38;;;;;;;19.77;8.17;;;8.00;99.90;;;;;;4945023;28;20251;-62
2022/01/04 00:58:07;;;;;;;17.23;8.27;;;8.00;99.90;;;;;;4952996;28;20592;-63
2022/01/04 01:00:36;;;;;;;26.17;9.07;;;8.00;99.90;;;;;;4952929;28;20317;-63
2022/01/04 01:03:05;;;;;;;18.17;8.77;;;8.00;99.90;;;;;;4953171;28;20653;-62
2022/01/04 01:05:33;;;;;;;19.63;8.63;;;8.00;99.90;;;;;;4972176;28;20238;-63
2022/01/04 01:08:03;;;;;;;16.00;8.33;;;8.00;99.90;;;;;;4971981;28;20238;-62
2022/01/04 01:13:18;;;;;;;14.13;7.97;;;8.10;99.90;;;;;;4971917;28;20234;-62
2022/01/04 01:15:46;;;;;;;14.37;8.00;;;8.10;99.90;;;;;;4971942;28;20235;-62
2022/01/04 01:18:17;;;;;;;17.10;7.63;;;8.00;99.90;;;;;;4971915;28;20723;-63
2022/01/04 01:20:48;;;;;;;17.23;8.50;;;8.00;99.90;;;;;;4971934;28;20242;-62
2022/01/04 01:23:19;;;;;;;18.33;8.83;;;8.00;99.90;;;;;;4970215;28;20254;-62
2022/01/04 01:25:47;;;;;;;20.13;8.37;;;8.00;99.90;;;;;;4956562;28;20239;-62
2022/01/04 01:28:15;;;;;;;17.40;7.50;;;8.00;99.90;;;;;;4952563;28;20240;-62
2022/01/04 01:30:44;;;;;;;18.97;8.87;;;8.10;99.90;;;;;;4952494;28;20240;-62
2022/01/04 01:33:12;;;;;;;14.83;7.67;;;8.10;99.90;;;;;;4952310;28;20278;-62
2022/01/04 01:35:41;;;;;;;17.00;8.43;;;8.10;99.90;;;;;;4952581;28;20318;-62
2022/01/04 01:38:10;;;;;;;19.00;8.07;;;8.00;99.90;;;;;;4952453;28;20750;-63
2022/01/04 01:40:40;;;;;;;18.97;8.50;;;8.00;99.90;;;;;;4952448;28;20241;-62
2022/01/04 01:43:09;;;;;;;13.03;8.13;;;8.00;99.90;;;;;;4952036;28;20294;-63
2022/01/04 01:45:38;;;;;;;15.80;7.20;;;8.00;99.90;;;;;;4952385;28;20770;-62
2022/01/04 01:48:06;;;;;;;17.60;7.93;;;8.00;99.90;;;;;;4952393;28;20585;-62
2022/01/04 01:50:35;;;;;;;16.10;7.90;;;8.00;99.90;;;;;;4952286;28;20258;-64
2022/01/04 01:53:04;;;;;;;16.00;7.70;;;8.00;99.90;;;;;;4952003;28;20235;-62
2022/01/04 01:55:32;;;;;;;15.13;7.50;;;8.00;99.90;;;;;;4952284;28;20239;-62
2022/01/04 01:58:02;;;;;;;14.50;7.30;;;8.00;99.90;;;;;;4967099;28;20238;-62
2022/01/04 02:00:30;;;;;;;16.73;8.27;;;8.00;99.90;;;;;;4968672;28;20329;-62
2022/01/04 02:03:01;;;;;;;17.40;8.30;;;8.00;99.90;;;;;;4971490;28;20326;-62
2022/01/04 02:05:30;;;;;;;18.43;7.87;;;8.00;99.90;;;;;;4950459;28;20690;-62
2022/01/04 02:08:00;;;;;;;15.83;7.90;;;8.00;99.90;;;;;;4966319;28;20598;-62
2022/01/04 02:10:29;;;;;;;17.20;7.60;;;8.00;99.90;;;;;;4975039;28;20268;-62
2022/01/04 02:12:57;;;;;;;15.17;7.43;;;8.00;99.90;;;;;;4975250;28;20695;-62
2022/01/04 02:15:29;;;;;;;19.60;7.73;;;8.00;99.90;;;;;;4975048;28;20251;-63
2022/01/04 02:17:57;;;;;;;16.97;8.30;;;8.00;99.90;;;;;;4974910;28;20245;-62
2022/01/04 02:20:27;;;;;;;18.43;8.63;;;8.00;99.90;;;;;;4975044;28;20245;-62
2022/01/04 02:22:55;;;;;;;19.37;8.43;;;8.00;99.90;;;;;;4965627;28;20587;-62
2022/01/04 02:25:23;;;;;;;16.23;8.90;;;8.00;99.90;;;;;;4958900;28;20235;-64
2022/01/04 02:27:52;;;;;;;18.90;8.53;;;8.00;99.90;;;;;;4955950;28;20763;-62
2022/01/04 02:30:21;;;;;;;13.93;8.70;;;8.10;99.90;;;;;;4975024;28;20247;-62
2022/01/04 02:32:50;;;;;;;17.77;8.00;;;8.10;99.90;;;;;;4974697;28;20244;-62
2022/01/04 02:35:31;;;;;;;16.33;7.89;;;8.10;99.90;;;;;;1970424;28;10023396;-62
2022/01/04 02:38:01;;;;;;;18.47;8.87;;;8.10;99.90;;;;;;4274675;28;10000902;-63
2022/01/04 02:40:29;;;;;;;22.13;9.60;;;8.10;99.90;;;;;;4951244;28;20849;-62
2022/01/04 02:42:58;;;;;;;19.00;8.90;;;8.00;99.90;;;;;;4946397;28;20287;-62
2022/01/04 02:45:26;;;;;;;16.70;9.20;;;8.00;99.90;;;;;;4955172;28;20262;-62
2022/01/04 02:47:54;;;;;;;17.33;9.00;;;8.10;99.90;;;;;;4955193;28;20243;-62
2022/01/04 02:50:23;;;;;;;15.53;9.00;;;8.10;99.90;;;;;;4955663;28;20278;-62
2022/01/04 02:52:52;;;;;;;22.53;10.20;;;8.10;99.90;;;;;;4955203;28;20262;-62
2022/01/04 02:55:21;;;;;;;19.90;9.53;;;8.10;99.90;;;;;;4974419;28;20238;-62
2022/01/04 02:57:49;;;;;;;17.83;10.67;;;8.00;99.90;;;;;;4965139;28;20274;-62
2022/01/04 03:00:18;;;;;;;18.13;10.40;;;8.00;99.90;;;;;;4955209;28;20766;-62
2022/01/04 03:02:47;;;;;;;17.97;10.37;;;8.00;99.90;;;;;;4973685;28;20253;-62
2022/01/04 03:05:15;;;;;;;18.63;9.80;;;8.00;99.90;;;;;;4973451;28;20722;-62
2022/01/04 03:07:43;;;;;;;16.87;9.87;;;8.00;99.90;;;;;;4973091;28;21215;-62
2022/01/04 03:10:12;;;;;;;24.17;11.13;;;8.00;99.90;;;;;;4959832;28;20734;-63
2022/01/04 03:12:42;;;;;;;18.87;10.13;;;8.00;99.90;;;;;;4954709;28;20612;-62
2022/01/04 03:15:11;;;;;;;18.87;11.67;;;7.90;99.90;;;;;;4954854;28;20243;-62
2022/01/04 03:17:40;;;;;;;18.67;10.67;;;8.00;99.90;;;;;;4954395;28;20243;-62
2022/01/04 03:20:09;;;;;;;20.23;11.00;;;8.00;99.90;;;;;;4954887;28;20238;-62
2022/01/04 03:22:38;;;;;;;20.97;12.40;;;8.00;99.90;;;;;;4954362;28;20247;-62
2022/01/04 03:25:07;;;;;;;23.37;12.60;;;7.90;99.90;;;;;;4954711;28;20238;-62
2022/01/04 03:27:36;;;;;;;25.70;12.33;;;7.90;99.90;;;;;;4954332;28;20263;-62
2022/01/04 03:30:05;;;;;;;19.07;12.27;;;7.90;99.90;;;;;;4954348;28;20247;-62
2022/01/04 03:32:34;;;;;;;22.67;11.80;;;7.90;99.90;;;;;;4954287;28;20251;-62
2022/01/04 03:35:02;;;;;;;21.57;13.20;;;8.00;99.90;;;;;;4954553;28;20235;-62
2022/01/04 03:37:30;;;;;;;24.50;12.90;;;7.90;99.90;;;;;;4953646;28;20243;-63
2022/01/04 03:39:58;;;;;;;22.33;12.67;;;7.90;99.90;;;;;;4948443;28;20234;-62
2022/01/04 03:42:26;;;;;;;22.20;13.70;;;7.90;99.90;;;;;;4952586;28;20319;-62
2022/01/04 03:44:55;;;;;;;25.37;13.00;;;7.90;99.90;;;;;;4953554;28;20591;-63
2022/01/04 03:47:24;;;;;;;21.83;12.67;;;7.90;99.90;;;;;;4971677;28;20235;-62
2022/01/04 03:49:52;;;;;;;21.97;13.67;;;7.90;99.90;;;;;;4954630;28;20277;-62
2022/01/04 03:52:20;;;;;;;22.13;12.93;;;7.90;99.90;;;;;;4954180;28;20240;-62
2022/01/04 03:54:48;;;;;;;21.50;13.90;;;7.90;99.90;;;;;;4954073;28;20262;-62
2022/01/04 03:57:16;;;;;;;23.00;12.87;;;7.90;99.90;;;;;;4973113;28;20241;-62
2022/01/04 03:59:44;;;;;;;21.10;13.57;;;7.90;99.90;;;;;;4973241;28;20289;-62
2022/01/04 04:02:14;;;;;;;24.83;13.00;;;7.80;99.90;;;;;;4973441;28;20246;-62
2022/01/04 04:04:42;;;;;;;25.77;13.67;;;7.80;99.90;;;;;;4972959;28;20761;-62
2022/01/04 04:07:11;;;;;;;21.83;13.47;;;7.80;99.90;;;;;;4972978;28;20226;-62
2022/01/04 04:09:40;;;;;;;22.30;14.20;;;7.80;99.90;;;;;;4973051;28;20238;-62
2022/01/04 04:12:09;;;;;;;27.20;13.90;;;7.80;99.90;;;;;;4972373;28;20238;-62
2022/01/04 04:14:37;;;;;;;27.93;14.60;;;7.80;99.90;;;;;;4954836;28;20235;-62
2022/01/04 04:17:14;;;;;;;24.17;14.00;;;7.90;99.90;;;;;;4953659;28;20242;-62
2022/01/04 04:19:43;;;;;;;19.67;14.30;;;7.90;99.90;;;;;;4953469;28;20243;-63
2022/01/04 04:22:11;;;;;;;19.73;13.07;;;7.90;99.90;;;;;;4953343;28;20742;-62
2022/01/04 04:24:39;;;;;;;26.07;14.40;;;7.90;99.90;;;;;;4953277;28;20783;-62
2022/01/04 04:27:07;;;;;;;23.30;14.37;;;7.90;99.90;;;;;;4953454;28;20263;-62
2022/01/04 04:29:35;;;;;;;25.23;13.77;;;7.90;99.90;;;;;;4953357;28;20246;-62
2022/01/04 04:32:05;;;;;;;24.80;13.73;;;7.90;99.90;;;;;;4953388;28;20243;-62
2022/01/04 04:34:46;;;;;;;22.69;12.50;;;7.90;99.90;;;;;;2991684;28;10001598;-63
2022/01/04 04:37:14;;;;;;;25.53;14.00;;;7.90;99.90;;;;;;3256656;28;10001613;-63
2022/01/04 04:39:42;;;;;;;22.27;13.67;;;7.90;99.90;;;;;;4972355;28;20474;-63
2022/01/04 04:42:10;;;;;;;25.10;14.60;;;7.90;99.90;;;;;;4971830;28;20269;-62
2022/01/04 04:44:38;;;;;;;24.63;14.37;;;7.90;99.90;;;;;;4975934;28;20238;-62
2022/01/04 04:47:06;;;;;;;20.83;13.77;;;7.90;99.90;;;;;;4970377;28;20322;-62
2022/01/04 04:49:34;;;;;;;25.93;14.93;;;7.90;99.90;;;;;;4972286;28;20607;-62
2022/01/04 04:52:05;;;;;;;25.63;14.37;;;7.90;99.90;;;;;;4972363;28;20242;-62
2022/01/04 04:54:34;;;;;;;25.13;14.13;;;7.90;99.90;;;;;;4972129;28;20357;-62
2022/01/04 04:57:02;;;;;;;27.40;15.67;;;7.90;99.90;;;;;;4972309;28;20230;-62
2022/01/04 04:59:30;;;;;;;22.90;13.83;;;8.00;99.90;;;;;;4972119;28;20238;-62
2022/01/04 05:01:58;;;;;;;27.63;14.80;;;8.00;99.90;;;;;;4959051;28;20247;-62
2022/01/04 05:04:27;;;;;;;21.17;14.27;;;8.00;99.90;;;;;;4939757;28;20243;-62
2022/01/04 05:06:55;;;;;;;27.37;14.93;;;8.00;99.90;;;;;;4936001;28;20243;-62
2022/01/04 05:09:24;;;;;;;26.17;14.53;;;8.00;99.90;;;;;;4953110;28;20235;-63
2022/01/04 05:11:53;;;;;;;21.73;13.60;;;8.00;99.90;;;;;;4952903;28;20367;-62
2022/01/04 05:14:21;;;;;;;25.63;15.03;;;8.00;99.90;;;;;;4972080;28;20245;-62
2022/01/04 05:16:49;;;;;;;21.90;15.43;;;7.90;99.90;;;;;;4971797;28;20321;-62
2022/01/04 05:19:18;;;;;;;23.43;13.83;;;7.90;99.90;;;;;;4971937;28;20226;-62
2022/01/04 05:21:46;;;;;;;24.27;14.63;;;7.90;99.90;;;;;;4971509;28;20242;-62
2022/01/04 05:24:14;;;;;;;25.17;15.47;;;7.90;99.90;;;;;;4971912;28;20243;-62
2022/01/04 05:26:43;;;;;;;24.33;14.90;;;7.90;99.90;;;;;;4971825;28;20243;-62
2022/01/04 05:29:11;;;;;;;25.27;15.40;;;7.80;99.90;;;;;;4976074;28;20242;-62
2022/01/04 05:31:40;;;;;;;24.10;15.50;;;7.80;99.90;;;;;;4967554;28;20803;-62
2022/01/04 05:34:08;;;;;;;25.53;15.23;;;7.80;99.90;;;;;;4964882;28;20246;-62
2022/01/04 05:36:36;;;;;;;29.70;15.60;;;8.00;99.90;;;;;;4978209;28;20249;-62
2022/01/04 05:39:04;;;;;;;21.73;15.07;;;8.00;99.90;;;;;;4978648;28;20703;-62
2022/01/04 05:41:33;;;;;;;26.17;15.80;;;7.90;99.90;;;;;;4978181;28;20242;-62
2022/01/04 05:44:03;;;;;;;24.87;15.57;;;7.90;99.90;;;;;;4978338;28;20717;-62
2022/01/04 05:46:31;;;;;;;26.27;16.07;;;7.90;99.90;;;;;;4978028;28;20270;-62
2022/01/04 05:48:59;;;;;;;25.27;16.13;;;7.90;99.90;;;;;;4976894;28;20258;-62
2022/01/04 05:51:28;;;;;;;25.73;16.37;;;7.90;99.90;;;;;;4976841;28;20297;-62
2022/01/04 05:53:56;;;;;;;28.03;16.33;;;7.90;99.90;;;;;;4987417;28;20239;-62
2022/01/04 05:56:24;;;;;;;29.53;16.33;;;7.90;99.90;;;;;;4967911;28;20664;-63
2022/01/04 05:58:52;;;;;;;32.83;16.23;;;7.90;99.90;;;;;;4972533;28;20312;-62
2022/01/04 06:01:21;;;;;;;32.77;17.80;;;7.90;99.90;;;;;;4975439;28;20237;-62
2022/01/04 06:03:51;;;;;;;29.23;17.50;;;7.90;99.90;;;;;;4977391;28;20234;-62
2022/01/04 06:06:19;;;;;;;31.60;18.03;;;7.90;99.90;;;;;;4975565;28;20281;-62
2022/01/04 06:08:48;;;;;;;29.23;19.40;;;7.90;99.90;;;;;;4977060;28;20618;-62
2022/01/04 06:11:32;;;;;;;31.77;18.17;;;7.90;99.90;;;;;;4977630;28;20241;-62
2022/01/04 06:16:48;;;;;;;32.40;19.37;;;7.90;99.90;;;;;;4976665;28;20258;-63
2022/01/04 06:19:16;;;;;;;35.77;20.67;;;8.00;99.90;;;;;;4977888;28;20246;-62
2022/01/04 06:21:44;;;;;;;36.20;20.60;;;8.00;99.90;;;;;;4976668;28;20280;-62
2022/01/04 06:24:12;;;;;;;34.47;20.33;;;8.00;99.90;;;;;;4977343;28;20650;-64
2022/01/04 06:26:40;;;;;;;34.03;19.07;;;7.90;99.90;;;;;;4976489;28;20230;-63
2022/01/04 06:29:10;;;;;;;37.70;21.30;;;7.90;99.90;;;;;;4964453;28;20298;-65
2022/01/04 06:31:39;;;;;;;31.93;20.33;;;8.00;99.90;;;;;;4974386;28;20243;-62
2022/01/04 06:34:17;;;;;;;31.97;18.85;;;7.90;99.90;;;;;;3786851;28;10021784;-62
2022/01/04 06:36:45;;;;;;;37.38;21.60;;;8.00;99.90;;;;;;2050444;28;10002003;-62
2022/01/04 06:39:13;;;;;;;36.60;20.80;;;8.00;99.90;;;;;;4977651;28;20726;-62
2022/01/04 06:41:41;;;;;;;33.07;20.97;;;7.90;99.90;;;;;;4973534;28;20277;-62
2022/01/04 06:44:09;;;;;;;42.10;21.27;;;7.90;99.90;;;;;;4974695;28;20249;-62
2022/01/04 06:46:38;;;;;;;36.80;22.50;;;8.10;99.90;;;;;;4973852;28;20662;-62
2022/01/04 06:49:06;;;;;;;37.70;21.33;;;8.00;99.90;;;;;;4973618;28;20238;-62
2022/01/04 06:51:36;;;;;;;34.37;21.40;;;7.90;99.90;;;;;;4974500;28;20300;-63
2022/01/04 06:54:04;;;;;;;41.13;22.43;;;8.00;99.90;;;;;;4974302;28;20691;-62
2022/01/04 06:56:32;;;;;;;33.10;21.80;;;8.00;99.90;;;;;;4973886;28;20238;-62
2022/01/04 06:59:00;;;;;;;36.67;21.43;;;7.90;99.90;;;;;;4973614;28;20234;-62
2022/01/04 07:01:28;;;;;;;36.90;22.73;;;8.00;99.90;;;;;;4973376;28;20254;-62
2022/01/04 07:03:56;;;;;;;37.47;22.00;;;8.00;99.90;;;;;;4974131;28;20238;-63
2022/01/04 07:06:24;;;;;;;39.97;20.90;;;8.00;99.90;;;;;;4974403;28;20276;-63
2022/01/04 07:08:54;;;;;;;35.57;20.80;;;8.00;99.90;;;;;;4974204;28;20241;-62
2022/01/04 07:11:22;;;;;;;31.97;21.37;;;8.00;99.90;;;;;;4953814;28;20671;-62
2022/01/04 07:13:50;;;;;;;36.33;20.87;;;7.90;99.90;;;;;;4957868;28;20231;-62
2022/01/04 07:16:19;;;;;;;33.13;21.90;;;7.90;99.90;;;;;;4974046;28;20266;-62
2022/01/04 07:18:49;;;;;;;39.57;22.53;;;7.90;99.90;;;;;;4970716;28;20231;-62
2022/01/04 07:21:18;;;;;;;33.90;21.33;;;8.00;99.90;;;;;;4963154;28;20258;-62
2022/01/04 07:23:48;;;;;;;35.43;21.67;;;8.00;99.90;;;;;;4973577;28;20285;-62
2022/01/04 07:26:18;;;;;;;41.27;22.77;;;7.90;99.90;;;;;;4971598;28;20239;-62
2022/01/04 07:28:47;;;;;;;39.13;21.97;;;7.80;99.90;;;;;;4956752;28;20298;-62
2022/01/04 07:31:17;;;;;;;39.20;23.50;;;8.00;99.90;;;;;;4956519;28;20237;-63
2022/01/04 07:33:46;;;;;;;39.30;23.57;;;7.80;99.90;;;;;;4959482;28;20364;-62
2022/01/04 07:36:15;;;;;;;36.90;22.90;;;7.80;99.90;;;;;;4955302;28;20723;-62
2022/01/04 07:38:44;;;;;;;39.87;22.23;;;7.90;99.90;;;;;;4954011;28;20235;-62
2022/01/04 07:41:12;;;;;;;41.00;23.17;;;7.90;99.90;;;;;;4954301;28;20616;-64
2022/01/04 07:43:42;;;;;;;40.50;23.20;;;7.90;99.90;;;;;;4953892;28;20788;-62
2022/01/04 07:46:10;;;;;;;33.93;22.10;;;7.90;99.90;;;;;;4948415;28;20249;-62
2022/01/04 07:48:38;;;;;;;37.90;22.37;;;7.80;99.90;;;;;;4953015;28;20332;-62
2022/01/04 07:51:06;;;;;;;35.83;22.50;;;7.70;99.90;;;;;;4953828;28;20227;-62
2022/01/04 07:53:34;;;;;;;36.07;22.37;;;7.70;99.90;;;;;;4953558;28;20319;-62
2022/01/04 07:56:03;;;;;;;33.40;20.67;;;7.80;99.90;;;;;;4953814;28;20246;-62
2022/01/04 07:58:31;;;;;;;36.30;21.63;;;7.80;99.90;;;;;;4949619;28;20263;-62
2022/01/04 08:01:00;;;;;;;42.17;22.23;;;7.70;99.90;;;;;;4962776;28;20230;-62
2022/01/04 08:03:29;;;;;;;35.83;22.20;;;7.70;99.90;;;;;;4960074;28;20246;-62
2022/01/04 08:05:57;;;;;;;35.40;22.03;;;7.70;99.90;;;;;;4961871;28;20238;-63
2022/01/04 08:08:25;;;;;;;37.23;23.13;;;7.70;99.90;;;;;;4952939;28;20299;-63
2022/01/04 08:10:53;;;;;;;36.17;22.37;;;7.70;99.90;;;;;;4954314;28;20245;-62
2022/01/04 08:13:22;;;;;;;36.97;23.27;;;7.70;99.90;;;;;;4965737;28;20247;-62
2022/01/04 08:15:50;;;;;;;37.83;22.47;;;7.70;99.90;;;;;;4963371;28;20592;-63
2022/01/04 08:18:19;;;;;;;33.73;24.23;;;7.80;99.90;;;;;;4955465;28;20249;-62
2022/01/04 08:20:49;;;;;;;38.23;22.87;;;7.80;99.90;;;;;;4965320;28;20695;-62
2022/01/04 08:23:17;;;;;;;35.30;22.60;;;7.70;99.90;;;;;;4963891;28;20241;-63
2022/01/04 08:25:45;;;;;;;39.57;23.93;;;7.80;99.90;;;;;;4972115;28;20238;-62
2022/01/04 08:28:14;;;;;;;41.90;24.33;;;7.80;99.90;;;;;;4972176;28;20241;-63
2022/01/04 08:30:43;;;;;;;38.90;25.17;;;7.80;99.90;;;;;;4972058;28;20253;-62
2022/01/04 08:33:12;;;;;;;38.70;23.83;;;7.80;99.90;;;;;;4946519;28;20235;-64
2022/01/04 08:35:41;;;;;;;32.25;19.05;;;7.80;99.90;;;;;;969427;28;10002111;-63
2022/01/04 08:38:10;;;;;;;37.37;24.03;;;7.80;99.90;;;;;;4972292;28;20295;-62
2022/01/04 08:40:38;;;;;;;37.87;23.77;;;7.80;99.90;;;;;;4971222;28;20241;-63
2022/01/04 08:43:07;;;;;;;38.57;25.57;;;7.80;99.90;;;;;;4971214;28;20258;-62
2022/01/04 08:45:36;;;;;;;37.97;25.60;;;7.80;99.90;;;;;;4961964;28;20257;-62
2022/01/04 08:48:05;;;;;;;38.20;24.23;;;7.80;99.90;;;;;;4963949;28;20239;-63
2022/01/04 08:50:33;;;;;;;38.60;24.57;;;7.80;99.90;;;;;;4961080;28;20235;-63
2022/01/04 08:53:03;;;;;;;38.73;24.30;;;7.80;99.90;;;;;;4963308;28;20239;-62
2022/01/04 08:55:31;;;;;;;39.57;23.93;;;7.80;99.90;;;;;;4963456;28;20246;-62
2022/01/04 08:57:59;;;;;;;34.50;24.57;;;7.80;99.90;;;;;;4960458;28;20664;-62
2022/01/04 09:00:27;;;;;;;36.50;24.90;;;7.80;99.90;;;;;;4964561;28;20257;-62
2022/01/04 09:02:55;;;;;;;36.33;22.80;;;7.80;99.90;;;;;;4972764;28;20234;-62
2022/01/04 09:05:24;;;;;;;32.53;22.67;;;7.80;99.90;;;;;;4960551;28;20294;-62
2022/01/04 09:07:52;;;;;;;31.77;23.10;;;7.80;99.90;;;;;;4970703;28;20246;-62
2022/01/04 09:10:22;;;;;;;35.23;22.60;;;7.80;99.90;;;;;;4962824;28;20333;-62
2022/01/04 09:12:57;;;;;;;36.10;21.80;;;7.80;99.90;;;;;;4970905;28;20321;-62
2022/01/04 09:15:32;;;;;;;35.97;21.20;;;7.80;99.90;;;;;;4969809;28;20266;-62
2022/01/04 09:21:07;;;;;;;34.13;20.83;;;7.90;99.90;;;;;;4967714;28;20245;-63
2022/01/04 09:23:35;;;;;;;30.20;21.20;;;7.90;99.90;;;;;;4969461;28;20230;-62
2022/01/04 09:26:05;;;;;;;31.17;21.07;;;7.90;99.90;;;;;;4968265;28;20257;-62
2022/01/04 09:28:33;;;;;;;32.73;21.57;;;7.90;99.90;;;;;;4970172;28;20230;-63
2022/01/04 09:31:01;;;;;;;34.37;21.47;;;7.90;99.90;;;;;;4970908;28;20266;-62
2022/01/04 09:33:30;;;;;;;36.50;21.97;;;7.90;99.90;;;;;;4971087;28;20606;-62
2022/01/04 09:36:18;;;;;;;30.80;21.80;;;8.00;99.90;;;;;;4970478;28;20612;-62
2022/01/04 09:38:46;;;;;;;31.10;21.97;;;8.00;99.90;;;;;;4968613;28;20231;-62
2022/01/04 09:41:16;;;;;;;31.53;21.37;;;8.00;99.90;;;;;;4970890;28;20237;-64
2022/01/04 09:43:44;;;;;;;34.43;22.97;;;8.00;99.90;;;;;;4969202;28;20234;-62
2022/01/04 09:46:12;;;;;;;32.53;21.37;;;8.10;99.90;;;;;;4971236;28;20265;-63
2022/01/04 09:48:40;;;;;;;31.00;21.07;;;8.10;99.90;;;;;;4970824;28;20290;-62
2022/01/04 09:51:10;;;;;;;32.13;21.90;;;8.10;99.90;;;;;;4971210;28;20269;-62
2022/01/04 09:53:38;;;;;;;31.80;21.70;;;8.10;99.90;;;;;;4971020;28;20223;-62
2022/01/04 09:56:07;;;;;;;30.40;20.00;;;8.10;99.90;;;;;;4968098;28;20285;-62
2022/01/04 09:58:37;;;;;;;31.43;20.60;;;8.00;99.90;;;;;;4969292;28;20234;-62
2022/01/04 10:01:06;;;;;;;31.20;20.67;;;8.00;99.90;;;;;;4969109;28;20238;-62
2022/01/04 10:03:35;;;;;;;29.53;20.87;;;8.00;99.90;;;;;;4969310;28;20305;-62
2022/01/04 10:06:08;;;;;;;31.13;20.30;;;8.00;99.90;;;;;;4970367;28;20301;-62
2022/01/04 10:08:50;;;;;;;29.23;19.80;;;8.00;99.90;;;;;;4969722;28;20285;-62
2022/01/04 10:11:28;;;;;;;22.97;16.83;;;8.00;99.90;;;;;;4969919;28;20266;-63
2022/01/04 10:13:59;;;;;;;26.27;18.07;;;8.00;99.90;;;;;;4969799;28;20650;-62
2022/01/04 10:16:28;;;;;;;26.93;18.60;;;8.00;99.90;;;;;;4973277;28;20235;-63
2022/01/04 10:18:56;;;;;;;27.20;19.20;;;8.00;99.90;;;;;;4974369;28;20234;-63
2022/01/04 10:21:24;;;;;;;27.10;19.17;;;8.00;99.90;;;;;;4974617;28;20305;-62
2022/01/04 10:23:54;;;;;;;29.37;19.47;;;8.00;99.90;;;;;;4976660;28;20663;-63
2022/01/04 10:26:32;;;;;;;31.53;20.30;;;8.00;99.90;;;;;;4976191;28;20206;-62
2022/01/04 10:29:18;;;;;;;30.67;19.43;;;8.00;99.90;;;;;;4975812;28;20211;-62
2022/01/04 10:31:46;;;;;;;28.40;18.13;;;8.00;99.90;;;;;;4974885;28;20203;-63
2022/01/04 10:34:15;;;;;;;27.67;16.30;;;7.90;99.90;;;;;;4893588;28;21826;-62
2022/01/04 10:36:44;;;;;;;22.67;14.50;;;7.90;99.90;;;;;;338491;28;10023516;-63
2022/01/04 10:39:12;;;;;;;20.17;11.63;;;7.80;99.90;;;;;;4965972;28;20648;-63
2022/01/04 10:41:41;;;;;;;15.50;8.70;;;7.80;99.90;;;;;;4973084;28;20253;-62
2022/01/04 10:44:11;;;;;;;12.40;6.93;;;7.70;99.90;;;;;;4974910;28;20233;-62
2022/01/04 10:46:42;;;;;;;8.93;5.40;;;7.70;99.90;;;;;;4956846;28;20238;-63
2022/01/04 10:49:18;;;;;;;6.30;4.27;;;7.70;99.90;;;;;;4958450;28;20263;-62
2022/01/04 10:52:03;;;;;;;7.57;3.77;;;7.70;99.90;;;;;;4968246;28;20265;-62
2022/01/04 10:54:31;;;;;;;5.47;3.23;;;7.70;99.90;;;;;;4972759;28;20321;-62
2022/01/04 10:57:04;;;;;;;8.73;2.70;;;7.70;99.90;;;;;;4973928;28;20333;-63
2022/01/04 10:59:35;;;;;;;7.03;2.50;;;7.60;99.90;;;;;;4973652;28;20240;-62
2022/01/04 11:02:04;;;;;;;4.50;2.03;;;7.60;99.90;;;;;;4973512;28;20230;-62
2022/01/04 11:04:32;;;;;;;3.77;1.77;;;7.60;99.90;;;;;;4973416;28;20669;-62
2022/01/04 11:07:03;;;;;;;5.37;1.50;;;7.60;99.90;;;;;;4973799;28;20321;-62
2022/01/04 11:09:31;;;;;;;3.77;1.30;;;7.60;99.90;;;;;;4966950;28;20243;-62
2022/01/04 11:12:00;;;;;;;3.27;1.10;;;7.50;99.90;;;;;;4954562;28;20247;-62
2022/01/04 11:14:28;;;;;;;4.20;1.13;;;7.40;99.90;;;;;;4952981;28;20239;-62
2022/01/04 11:16:58;;;;;;;2.87;1.00;;;7.40;99.90;;;;;;4954663;28;20249;-62
2022/01/04 11:19:26;;;;;;;3.83;1.10;;;7.40;99.90;;;;;;4954814;28;20238;-62
2022/01/04 11:21:55;;;;;;;3.87;1.17;;;7.30;99.90;;;;;;4954653;28;20243;-62
2022/01/04 11:24:25;;;;;;;4.33;1.00;;;7.30;99.90;;;;;;4954250;28;20255;-62
2022/01/04 11:26:54;;;;;;;2.07;1.00;;;7.40;99.90;;;;;;4952955;28;20298;-62
2022/01/04 11:29:29;;;;;;;3.10;1.03;;;7.30;99.90;;;;;;4953853;28;20245;-62
2022/01/04 11:32:02;;;;;;;2.63;1.20;;;7.30;99.90;;;;;;4948984;28;20647;-62
2022/01/04 11:34:48;;;;;;;5.00;1.00;;;7.30;99.90;;;;;;4954090;28;20583;-62
2022/01/04 11:37:20;;;;;;;5.63;1.07;;;7.40;99.90;;;;;;4966745;28;20238;-62
2022/01/04 11:39:50;;;;;;;4.73;1.20;;;7.40;99.90;;;;;;4970651;28;20720;-62
2022/01/04 11:42:37;;;;;;;3.07;1.27;;;7.30;99.90;;;;;;4972856;28;20703;-62
2022/01/04 11:45:08;;;;;;;3.87;1.20;;;7.30;99.90;;;;;;4972904;28;20240;-62
2022/01/04 11:47:40;;;;;;;5.40;1.70;;;7.40;99.90;;;;;;4972924;28;20238;-62
2022/01/04 11:50:13;;;;;;;3.33;1.40;;;7.40;99.90;;;;;;4970922;28;20243;-62
2022/01/04 11:52:44;;;;;;;3.67;1.50;;;7.40;99.90;;;;;;4972519;28;20765;-62
2022/01/04 11:55:24;;;;;;;6.23;2.27;;;7.30;99.90;;;;;;4970687;28;20234;-62
2022/01/04 11:57:55;;;;;;;5.00;1.93;;;7.30;99.90;;;;;;4970847;28;20257;-62
2022/01/04 12:00:28;;;;;;;4.73;1.83;;;7.30;99.90;;;;;;4972412;28;20264;-62
2022/01/04 12:03:05;;;;;;;4.97;1.70;;;7.40;99.90;;;;;;4971080;28;20247;-62
2022/01/04 12:05:33;;;;;;;6.77;2.27;;;7.40;99.90;;;;;;4971963;28;20258;-62
2022/01/04 12:08:14;;;;;;;5.00;2.07;;;7.40;99.90;;;;;;4972375;28;20730;-62
2022/01/04 12:10:42;;;;;;;4.13;2.00;;;7.30;99.90;;;;;;4971005;28;20246;-62
2022/01/04 12:13:14;;;;;;;4.37;1.77;;;7.30;99.90;;;;;;4972537;28;20318;-62
2022/01/04 12:15:51;;;;;;;4.53;1.40;;;7.20;99.90;;;;;;4971227;28;20242;-62
2022/01/04 12:18:59;;;;;;;2.30;1.10;;;7.10;99.90;;;;;;4970925;28;20238;-62
2022/01/04 12:21:51;;;;;;;4.17;1.50;;;7.00;99.90;;;;;;4971740;28;20314;-62
2022/01/04 12:24:25;;;;;;;3.47;1.50;;;6.90;99.90;;;;;;4972157;28;20235;-62
2022/01/04 12:27:17;;;;;;;1.60;1.10;;;6.80;99.90;;;;;;4970016;28;20245;-62
2022/01/04 12:29:45;;;;;;;3.47;1.10;;;6.70;99.90;;;;;;4961996;28;20672;-62
2022/01/04 12:32:23;;;;;;;2.00;0.90;;;6.60;99.90;;;;;;4969906;28;20778;-62
2022/01/04 12:35:11;;;;;;;1.46;1.04;;;6.60;99.90;;;;;;2636607;28;10003941;-62
2022/01/04 12:37:40;;;;;;;2.53;0.90;;;6.50;99.90;;;;;;3940798;28;10001317;-62
2022/01/04 12:40:09;;;;;;;1.33;0.83;;;6.40;99.90;;;;;;4971691;28;21017;-62
2022/01/04 12:42:41;;;;;;;1.67;0.70;;;6.40;99.90;;;;;;4970137;28;20321;-62
2022/01/04 12:45:13;;;;;;;1.63;0.90;;;6.30;99.90;;;;;;4970479;28;20297;-63
2022/01/04 12:47:50;;;;;;;1.83;0.73;;;6.30;99.90;;;;;;4969890;28;20239;-62
2022/01/04 12:50:18;;;;;;;1.97;1.10;;;6.30;99.90;;;;;;4969775;28;20301;-62
2022/01/04 12:52:51;;;;;;;2.60;0.83;;;6.30;99.90;;;;;;4972255;28;20258;-63
2022/01/04 12:55:19;;;;;;;0.67;0.63;;;6.20;99.90;;;;;;4970536;28;20237;-62
2022/01/04 12:57:54;;;;;;;1.20;0.50;;;6.10;99.90;;;;;;4970359;28;20229;-62
2022/01/04 13:00:22;;;;;;;0.40;0.40;;;6.10;99.90;;;;;;4970923;28;20242;-62
2022/01/04 13:02:50;;;;;;;1.03;0.40;;;6.00;99.90;;;;;;4970776;28;20245;-62
2022/01/04 13:05:20;;;;;;;1.17;0.50;;;5.90;99.90;;;;;;4970982;28;20249;-62
2022/01/04 13:07:48;;;;;;;1.93;0.53;;;5.90;99.90;;;;;;4970248;28;20230;-62